Terminal Aerodrome Forecast
Issued by NWS Brownsville, TX

Home | Current Version | Previous Version | Text Only | Print | Product List | Glossary On
Versions: 1 2 3 4 5 6 7 8 9 10 11 12 13 14 15 16 17 18 19 20 21 22 23 24 25 26 27
000
FTUS44 KBRO 250520
TAFBRO
TAF
KBRO 250520Z 2506/2606 16013KT P6SM FEW015
     FM250800 15007KT 4SM BR VCSH BKN015
      TEMPO 2509/2513 BKN007
     FM251500 16015KT P6SM VCSH BKN020
     FM252100 17010KT P6SM OVC035
     FM260300 VRB03KT 4SM BR OVC015=

USA.gov is the U.S. government's official web portal to all federal, state and local government web resources and services.